sensor_id;sensor_type;location;lat;lon;timestamp;temperature;humidity
42913;DHT22;50720;54.324;18.558;2023-08-06T00:02:04;16.20;99.90
42913;DHT22;50720;54.324;18.558;2023-08-06T00:04:51;16.20;99.90
42913;DHT22;50720;54.324;18.558;2023-08-06T00:07:38;16.20;99.90
42913;DHT22;50720;54.324;18.558;2023-08-06T00:10:25;16.20;99.90
42913;DHT22;50720;54.324;18.558;2023-08-06T00:13:12;16.20;99.90
42913;DHT22;50720;54.324;18.558;2023-08-06T00:16:09;16.20;99.90
42913;DHT22;50720;54.324;18.558;2023-08-06T00:18:57;16.20;99.90
42913;DHT22;50720;54.324;18.558;2023-08-06T00:21:44;16.20;99.90
42913;DHT22;50720;54.324;18.558;2023-08-06T00:24:31;16.20;99.90
42913;DHT22;50720;54.324;18.558;2023-08-06T00:27:18;16.20;99.90
42913;DHT22;50720;54.324;18.558;2023-08-06T00:30:05;16.30;99.90
42913;DHT22;50720;54.324;18.558;2023-08-06T00:32:53;16.30;99.90
42913;DHT22;50720;54.324;18.558;2023-08-06T00:35:42;16.30;99.90
42913;DHT22;50720;54.324;18.558;2023-08-06T00:38:29;16.30;99.90
42913;DHT22;50720;54.324;18.558;2023-08-06T00:41:16;16.30;99.90
42913;DHT22;50720;54.324;18.558;2023-08-06T00:44:04;16.40;99.90
42913;DHT22;50720;54.324;18.558;2023-08-06T00:46:50;16.40;99.90
42913;DHT22;50720;54.324;18.558;2023-08-06T00:49:38;16.40;99.90
42913;DHT22;50720;54.324;18.558;2023-08-06T00:52:26;16.50;99.90
42913;DHT22;50720;54.324;18.558;2023-08-06T00:55:14;16.50;99.90
42913;DHT22;50720;54.324;18.558;2023-08-06T00:58:01;16.50;99.90
42913;DHT22;50720;54.324;18.558;2023-08-06T01:00:49;16.50;99.90
42913;DHT22;50720;54.324;18.558;2023-08-06T01:03:36;16.50;99.90
42913;DHT22;50720;54.324;18.558;2023-08-06T01:06:33;16.60;99.90
42913;DHT22;50720;54.324;18.558;2023-08-06T01:12:29;16.50;99.90
42913;DHT22;50720;54.324;18.558;2023-08-06T01:15:22;16.50;99.90
42913;DHT22;50720;54.324;18.558;2023-08-06T01:18:11;16.50;99.90
42913;DHT22;50720;54.324;18.558;2023-08-06T01:21:00;16.50;99.90
42913;DHT22;50720;54.324;18.558;2023-08-06T01:23:48;16.40;99.90
42913;DHT22;50720;54.324;18.558;2023-08-06T01:26:39;16.40;99.90
42913;DHT22;50720;54.324;18.558;2023-08-06T01:29:34;16.40;99.90
42913;DHT22;50720;54.324;18.558;2023-08-06T01:32:21;16.40;99.90
42913;DHT22;50720;54.324;18.558;2023-08-06T01:35:11;16.40;99.90
42913;DHT22;50720;54.324;18.558;2023-08-06T01:38:01;16.40;99.90
42913;DHT22;50720;54.324;18.558;2023-08-06T01:40:49;16.40;99.90
42913;DHT22;50720;54.324;18.558;2023-08-06T01:43:35;16.40;99.90
42913;DHT22;50720;54.324;18.558;2023-08-06T01:46:23;16.40;99.90
42913;DHT22;50720;54.324;18.558;2023-08-06T01:49:10;16.40;99.90
42913;DHT22;50720;54.324;18.558;2023-08-06T01:51:57;16.30;99.90
42913;DHT22;50720;54.324;18.558;2023-08-06T01:54:45;16.30;99.90
42913;DHT22;50720;54.324;18.558;2023-08-06T01:57:32;16.30;99.90
42913;DHT22;50720;54.324;18.558;2023-08-06T02:00:19;16.30;99.90
42913;DHT22;50720;54.324;18.558;2023-08-06T02:03:06;16.20;99.90
42913;DHT22;50720;54.324;18.558;2023-08-06T02:05:52;16.20;99.90
42913;DHT22;50720;54.324;18.558;2023-08-06T02:08:40;16.20;99.90
42913;DHT22;50720;54.324;18.558;2023-08-06T02:11:28;16.20;99.90
42913;DHT22;50720;54.324;18.558;2023-08-06T02:14:16;16.10;99.90
42913;DHT22;50720;54.324;18.558;2023-08-06T02:17:04;16.00;99.90
42913;DHT22;50720;54.324;18.558;2023-08-06T02:19:51;16.00;99.90
42913;DHT22;50720;54.324;18.558;2023-08-06T02:22:38;15.90;99.90
42913;DHT22;50720;54.324;18.558;2023-08-06T02:25:25;15.80;99.90
42913;DHT22;50720;54.324;18.558;2023-08-06T02:28:13;15.80;99.90
42913;DHT22;50720;54.324;18.558;2023-08-06T02:31:00;15.80;99.90
42913;DHT22;50720;54.324;18.558;2023-08-06T02:33:47;15.80;99.90
42913;DHT22;50720;54.324;18.558;2023-08-06T02:36:34;15.70;99.90
42913;DHT22;50720;54.324;18.558;2023-08-06T02:39:22;15.60;99.90
42913;DHT22;50720;54.324;18.558;2023-08-06T02:42:08;15.50;99.90
42913;DHT22;50720;54.324;18.558;2023-08-06T02:44:57;15.50;99.90
42913;DHT22;50720;54.324;18.558;2023-08-06T02:47:44;15.50;99.90
42913;DHT22;50720;54.324;18.558;2023-08-06T02:50:30;15.40;99.90
42913;DHT22;50720;54.324;18.558;2023-08-06T02:53:18;15.40;99.90
42913;DHT22;50720;54.324;18.558;2023-08-06T02:56:04;15.40;99.90
42913;DHT22;50720;54.324;18.558;2023-08-06T02:58:51;15.40;99.90
42913;DHT22;50720;54.324;18.558;2023-08-06T03:01:39;15.50;99.90
42913;DHT22;50720;54.324;18.558;2023-08-06T03:04:26;15.50;99.90
42913;DHT22;50720;54.324;18.558;2023-08-06T03:07:13;15.50;99.90
42913;DHT22;50720;54.324;18.558;2023-08-06T03:10:01;15.60;99.90
42913;DHT22;50720;54.324;18.558;2023-08-06T03:12:48;15.60;99.90
42913;DHT22;50720;54.324;18.558;2023-08-06T03:15:35;15.70;99.90
42913;DHT22;50720;54.324;18.558;2023-08-06T03:18:23;15.80;99.90
42913;DHT22;50720;54.324;18.558;2023-08-06T03:21:11;15.90;99.90
42913;DHT22;50720;54.324;18.558;2023-08-06T03:23:58;16.00;99.90
42913;DHT22;50720;54.324;18.558;2023-08-06T03:26:45;16.00;99.90
42913;DHT22;50720;54.324;18.558;2023-08-06T03:29:32;16.20;99.90
42913;DHT22;50720;54.324;18.558;2023-08-06T03:32:19;16.10;99.90
42913;DHT22;50720;54.324;18.558;2023-08-06T03:35:08;16.20;99.90
42913;DHT22;50720;54.324;18.558;2023-08-06T03:37:55;16.20;99.90
42913;DHT22;50720;54.324;18.558;2023-08-06T03:40:42;16.30;99.90
42913;DHT22;50720;54.324;18.558;2023-08-06T03:43:29;16.30;99.90
42913;DHT22;50720;54.324;18.558;2023-08-06T03:46:16;16.40;99.90
42913;DHT22;50720;54.324;18.558;2023-08-06T03:49:03;16.40;99.90
42913;DHT22;50720;54.324;18.558;2023-08-06T03:51:51;16.50;99.90
42913;DHT22;50720;54.324;18.558;2023-08-06T03:54:39;16.50;99.90
42913;DHT22;50720;54.324;18.558;2023-08-06T03:57:25;16.50;99.90
42913;DHT22;50720;54.324;18.558;2023-08-06T04:00:13;16.60;99.90
42913;DHT22;50720;54.324;18.558;2023-08-06T04:02:59;16.60;99.90
42913;DHT22;50720;54.324;18.558;2023-08-06T04:05:47;16.60;99.90
42913;DHT22;50720;54.324;18.558;2023-08-06T04:08:35;16.70;99.90
42913;DHT22;50720;54.324;18.558;2023-08-06T04:11:22;16.70;99.90
42913;DHT22;50720;54.324;18.558;2023-08-06T04:14:10;16.70;99.90
42913;DHT22;50720;54.324;18.558;2023-08-06T04:16:56;16.70;99.90
42913;DHT22;50720;54.324;18.558;2023-08-06T04:19:43;16.70;99.90
42913;DHT22;50720;54.324;18.558;2023-08-06T04:22:31;16.70;99.90
42913;DHT22;50720;54.324;18.558;2023-08-06T04:25:19;16.80;99.90
42913;DHT22;50720;54.324;18.558;2023-08-06T04:28:07;16.70;99.90
42913;DHT22;50720;54.324;18.558;2023-08-06T04:30:53;16.80;99.90
42913;DHT22;50720;54.324;18.558;2023-08-06T04:33:41;16.80;99.90
42913;DHT22;50720;54.324;18.558;2023-08-06T04:36:28;16.90;99.90
42913;DHT22;50720;54.324;18.558;2023-08-06T04:39:15;16.90;99.90
42913;DHT22;50720;54.324;18.558;2023-08-06T04:42:04;16.90;99.90
42913;DHT22;50720;54.324;18.558;2023-08-06T04:44:51;17.00;99.90
42913;DHT22;50720;54.324;18.558;2023-08-06T04:47:38;16.90;99.90
42913;DHT22;50720;54.324;18.558;2023-08-06T04:50:25;17.00;99.90
42913;DHT22;50720;54.324;18.558;2023-08-06T04:53:12;17.00;99.90
42913;DHT22;50720;54.324;18.558;2023-08-06T04:55:59;17.00;99.90
42913;DHT22;50720;54.324;18.558;2023-08-06T04:58:48;17.00;99.90
42913;DHT22;50720;54.324;18.558;2023-08-06T05:01:35;17.00;99.90
42913;DHT22;50720;54.324;18.558;2023-08-06T05:04:22;17.00;99.90
42913;DHT22;50720;54.324;18.558;2023-08-06T05:07:11;17.10;99.90
42913;DHT22;50720;54.324;18.558;2023-08-06T05:09:57;17.10;99.90
42913;DHT22;50720;54.324;18.558;2023-08-06T05:12:45;17.10;99.90
42913;DHT22;50720;54.324;18.558;2023-08-06T05:15:33;17.10;99.90
42913;DHT22;50720;54.324;18.558;2023-08-06T05:18:21;17.20;99.90
42913;DHT22;50720;54.324;18.558;2023-08-06T05:21:07;17.20;99.90
42913;DHT22;50720;54.324;18.558;2023-08-06T05:23:55;17.20;99.90
42913;DHT22;50720;54.324;18.558;2023-08-06T05:26:41;17.20;99.90
42913;DHT22;50720;54.324;18.558;2023-08-06T05:29:32;17.20;99.90
42913;DHT22;50720;54.324;18.558;2023-08-06T05:32:20;17.20;99.90
42913;DHT22;50720;54.324;18.558;2023-08-06T05:35:07;17.20;99.90
42913;DHT22;50720;54.324;18.558;2023-08-06T05:37:54;17.20;99.90
42913;DHT22;50720;54.324;18.558;2023-08-06T05:40:41;17.20;99.90
42913;DHT22;50720;54.324;18.558;2023-08-06T05:43:28;17.20;99.90
42913;DHT22;50720;54.324;18.558;2023-08-06T05:46:15;17.20;99.90
42913;DHT22;50720;54.324;18.558;2023-08-06T05:49:03;17.20;99.90
42913;DHT22;50720;54.324;18.558;2023-08-06T05:54:38;17.20;99.90
42913;DHT22;50720;54.324;18.558;2023-08-06T05:57:26;17.20;99.90
42913;DHT22;50720;54.324;18.558;2023-08-06T06:00:13;17.20;99.90
42913;DHT22;50720;54.324;18.558;2023-08-06T06:03:00;17.20;99.90
42913;DHT22;50720;54.324;18.558;2023-08-06T06:05:48;17.20;99.90
42913;DHT22;50720;54.324;18.558;2023-08-06T06:08:36;17.30;99.90
42913;DHT22;50720;54.324;18.558;2023-08-06T06:11:23;17.30;99.90
42913;DHT22;50720;54.324;18.558;2023-08-06T06:14:10;17.30;99.90
42913;DHT22;50720;54.324;18.558;2023-08-06T06:16:56;17.30;99.90
42913;DHT22;50720;54.324;18.558;2023-08-06T06:19:43;17.20;99.90
42913;DHT22;50720;54.324;18.558;2023-08-06T06:22:32;17.30;99.90
42913;DHT22;50720;54.324;18.558;2023-08-06T06:25:19;17.20;99.90
42913;DHT22;50720;54.324;18.558;2023-08-06T06:28:06;17.40;99.90
42913;DHT22;50720;54.324;18.558;2023-08-06T06:30:53;17.30;99.90
42913;DHT22;50720;54.324;18.558;2023-08-06T06:33:39;17.30;99.90
42913;DHT22;50720;54.324;18.558;2023-08-06T06:36:27;17.40;99.90
42913;DHT22;50720;54.324;18.558;2023-08-06T06:39:16;17.40;99.90
42913;DHT22;50720;54.324;18.558;2023-08-06T06:42:03;17.40;99.90
42913;DHT22;50720;54.324;18.558;2023-08-06T06:44:50;17.50;99.90
42913;DHT22;50720;54.324;18.558;2023-08-06T06:47:38;17.50;99.90
42913;DHT22;50720;54.324;18.558;2023-08-06T06:50:25;17.60;99.90
42913;DHT22;50720;54.324;18.558;2023-08-06T06:53:13;17.60;99.90
42913;DHT22;50720;54.324;18.558;2023-08-06T06:56:03;17.70;99.90
42913;DHT22;50720;54.324;18.558;2023-08-06T06:58:51;17.70;99.90
42913;DHT22;50720;54.324;18.558;2023-08-06T07:01:38;17.80;99.90
42913;DHT22;50720;54.324;18.558;2023-08-06T07:04:25;17.90;99.90
42913;DHT22;50720;54.324;18.558;2023-08-06T07:07:11;17.90;99.90
42913;DHT22;50720;54.324;18.558;2023-08-06T07:09:58;18.00;99.90
42913;DHT22;50720;54.324;18.558;2023-08-06T07:12:47;18.00;99.90
42913;DHT22;50720;54.324;18.558;2023-08-06T07:15:34;18.00;99.90
42913;DHT22;50720;54.324;18.558;2023-08-06T07:18:20;18.10;99.90
42913;DHT22;50720;54.324;18.558;2023-08-06T07:21:08;18.10;99.90
42913;DHT22;50720;54.324;18.558;2023-08-06T07:23:54;18.10;99.90
42913;DHT22;50720;54.324;18.558;2023-08-06T07:26:41;18.20;99.90
42913;DHT22;50720;54.324;18.558;2023-08-06T07:29:29;18.30;99.90
42913;DHT22;50720;54.324;18.558;2023-08-06T07:32:17;18.30;99.90
42913;DHT22;50720;54.324;18.558;2023-08-06T07:35:04;18.30;99.90
42913;DHT22;50720;54.324;18.558;2023-08-06T07:37:53;18.30;99.90
42913;DHT22;50720;54.324;18.558;2023-08-06T07:40:40;18.30;99.90
42913;DHT22;50720;54.324;18.558;2023-08-06T07:43:30;18.50;99.90
42913;DHT22;50720;54.324;18.558;2023-08-06T07:46:18;18.50;99.90
42913;DHT22;50720;54.324;18.558;2023-08-06T07:49:06;18.40;99.90
42913;DHT22;50720;54.324;18.558;2023-08-06T07:51:53;18.50;99.90
42913;DHT22;50720;54.324;18.558;2023-08-06T07:54:40;18.40;99.90
42913;DHT22;50720;54.324;18.558;2023-08-06T07:57:27;18.50;99.90
42913;DHT22;50720;54.324;18.558;2023-08-06T08:00:14;18.50;99.90
42913;DHT22;50720;54.324;18.558;2023-08-06T08:03:03;18.50;99.90
42913;DHT22;50720;54.324;18.558;2023-08-06T08:05:50;18.50;99.90
42913;DHT22;50720;54.324;18.558;2023-08-06T08:08:41;18.50;99.90
42913;DHT22;50720;54.324;18.558;2023-08-06T08:11:28;18.50;99.90
42913;DHT22;50720;54.324;18.558;2023-08-06T08:14:15;18.70;99.90
42913;DHT22;50720;54.324;18.558;2023-08-06T08:17:03;18.70;99.90
42913;DHT22;50720;54.324;18.558;2023-08-06T08:19:51;18.70;99.90
42913;DHT22;50720;54.324;18.558;2023-08-06T08:22:38;18.70;99.90
42913;DHT22;50720;54.324;18.558;2023-08-06T08:25:25;18.60;99.90
42913;DHT22;50720;54.324;18.558;2023-08-06T08:28:12;18.70;99.90
42913;DHT22;50720;54.324;18.558;2023-08-06T08:30:59;18.70;99.90
42913;DHT22;50720;54.324;18.558;2023-08-06T08:33:46;18.70;99.90
42913;DHT22;50720;54.324;18.558;2023-08-06T08:36:34;18.70;99.90
42913;DHT22;50720;54.324;18.558;2023-08-06T08:39:21;18.70;99.90
42913;DHT22;50720;54.324;18.558;2023-08-06T08:42:09;18.70;99.90
42913;DHT22;50720;54.324;18.558;2023-08-06T08:44:57;18.80;99.90
42913;DHT22;50720;54.324;18.558;2023-08-06T08:47:44;18.80;99.90
42913;DHT22;50720;54.324;18.558;2023-08-06T08:50:32;18.80;99.90
42913;DHT22;50720;54.324;18.558;2023-08-06T08:53:21;18.80;99.90
42913;DHT22;50720;54.324;18.558;2023-08-06T08:56:08;18.80;99.90
42913;DHT22;50720;54.324;18.558;2023-08-06T08:58:56;18.80;99.90
42913;DHT22;50720;54.324;18.558;2023-08-06T09:01:46;18.80;99.90
42913;DHT22;50720;54.324;18.558;2023-08-06T09:04:35;18.90;99.90
42913;DHT22;50720;54.324;18.558;2023-08-06T09:07:23;18.90;99.90
42913;DHT22;50720;54.324;18.558;2023-08-06T09:10:14;18.90;99.90
42913;DHT22;50720;54.324;18.558;2023-08-06T09:13:03;18.80;99.90
42913;DHT22;50720;54.324;18.558;2023-08-06T09:15:49;18.90;99.90
42913;DHT22;50720;54.324;18.558;2023-08-06T09:18:39;18.90;99.90
42913;DHT22;50720;54.324;18.558;2023-08-06T09:21:29;18.90;99.90
42913;DHT22;50720;54.324;18.558;2023-08-06T09:24:16;19.00;99.90
42913;DHT22;50720;54.324;18.558;2023-08-06T09:27:04;19.00;99.90
42913;DHT22;50720;54.324;18.558;2023-08-06T09:29:51;19.20;99.90
42913;DHT22;50720;54.324;18.558;2023-08-06T09:32:48;19.20;99.90
42913;DHT22;50720;54.324;18.558;2023-08-06T09:35:36;19.30;99.90
42913;DHT22;50720;54.324;18.558;2023-08-06T09:38:25;19.30;99.90
42913;DHT22;50720;54.324;18.558;2023-08-06T09:41:27;19.40;99.90
42913;DHT22;50720;54.324;18.558;2023-08-06T09:49:57;19.40;99.90
42913;DHT22;50720;54.324;18.558;2023-08-06T09:52:44;19.40;99.90
42913;DHT22;50720;54.324;18.558;2023-08-06T09:55:32;19.40;99.90
42913;DHT22;50720;54.324;18.558;2023-08-06T09:58:21;19.40;99.90
42913;DHT22;50720;54.324;18.558;2023-08-06T10:01:11;19.40;99.90
42913;DHT22;50720;54.324;18.558;2023-08-06T10:03:58;19.40;99.90
42913;DHT22;50720;54.324;18.558;2023-08-06T10:06:47;19.50;99.90
42913;DHT22;50720;54.324;18.558;2023-08-06T10:09:34;19.50;99.90
42913;DHT22;50720;54.324;18.558;2023-08-06T10:15:12;19.50;99.90
42913;DHT22;50720;54.324;18.558;2023-08-06T10:18:02;19.60;99.90
42913;DHT22;50720;54.324;18.558;2023-08-06T10:20:49;19.50;99.90
42913;DHT22;50720;54.324;18.558;2023-08-06T10:23:36;19.50;99.90
42913;DHT22;50720;54.324;18.558;2023-08-06T10:26:27;19.50;99.90
42913;DHT22;50720;54.324;18.558;2023-08-06T10:29:35;19.50;99.90
42913;DHT22;50720;54.324;18.558;2023-08-06T10:32:46;19.50;99.90
42913;DHT22;50720;54.324;18.558;2023-08-06T10:35:41;19.50;99.90
42913;DHT22;50720;54.324;18.558;2023-08-06T10:38:29;19.50;99.90
42913;DHT22;50720;54.324;18.558;2023-08-06T10:41:27;19.50;99.90
42913;DHT22;50720;54.324;18.558;2023-08-06T10:44:14;19.50;99.90
42913;DHT22;50720;54.324;18.558;2023-08-06T10:47:28;19.50;99.90
42913;DHT22;50720;54.324;18.558;2023-08-06T10:50:16;19.50;99.90
42913;DHT22;50720;54.324;18.558;2023-08-06T10:53:09;19.60;99.90
42913;DHT22;50720;54.324;18.558;2023-08-06T10:56:01;19.80;99.90
42913;DHT22;50720;54.324;18.558;2023-08-06T10:58:49;19.90;99.90
42913;DHT22;50720;54.324;18.558;2023-08-06T11:01:36;20.70;99.90
42913;DHT22;50720;54.324;18.558;2023-08-06T11:04:25;20.90;99.90
42913;DHT22;50720;54.324;18.558;2023-08-06T11:07:17;21.60;99.90
42913;DHT22;50720;54.324;18.558;2023-08-06T11:10:07;21.60;99.90
42913;DHT22;50720;54.324;18.558;2023-08-06T11:12:54;22.00;99.90
42913;DHT22;50720;54.324;18.558;2023-08-06T11:15:42;22.20;99.90
42913;DHT22;50720;54.324;18.558;2023-08-06T11:18:30;22.30;99.90
42913;DHT22;50720;54.324;18.558;2023-08-06T11:21:21;22.20;99.90
42913;DHT22;50720;54.324;18.558;2023-08-06T11:24:10;22.10;99.90
42913;DHT22;50720;54.324;18.558;2023-08-06T11:26:59;22.00;99.90
42913;DHT22;50720;54.324;18.558;2023-08-06T11:29:47;22.00;99.90
42913;DHT22;50720;54.324;18.558;2023-08-06T11:32:33;21.90;99.90
42913;DHT22;50720;54.324;18.558;2023-08-06T11:35:34;22.00;99.90
42913;DHT22;50720;54.324;18.558;2023-08-06T11:38:20;22.00;99.90
42913;DHT22;50720;54.324;18.558;2023-08-06T11:41:07;22.00;99.90
42913;DHT22;50720;54.324;18.558;2023-08-06T11:43:56;21.80;99.90
42913;DHT22;50720;54.324;18.558;2023-08-06T11:46:50;21.70;99.90
42913;DHT22;50720;54.324;18.558;2023-08-06T11:49:41;21.70;99.90
42913;DHT22;50720;54.324;18.558;2023-08-06T11:52:30;21.60;99.90
42913;DHT22;50720;54.324;18.558;2023-08-06T11:55:17;21.70;99.90
42913;DHT22;50720;54.324;18.558;2023-08-06T11:58:04;21.70;99.90
42913;DHT22;50720;54.324;18.558;2023-08-06T12:00:53;21.90;99.90
42913;DHT22;50720;54.324;18.558;2023-08-06T12:03:41;22.10;99.90
42913;DHT22;50720;54.324;18.558;2023-08-06T12:06:28;22.10;99.90
42913;DHT22;50720;54.324;18.558;2023-08-06T12:09:15;22.40;99.90
42913;DHT22;50720;54.324;18.558;2023-08-06T12:12:02;22.60;99.90
42913;DHT22;50720;54.324;18.558;2023-08-06T12:14:49;22.90;99.90
42913;DHT22;50720;54.324;18.558;2023-08-06T12:17:38;22.80;99.90
42913;DHT22;50720;54.324;18.558;2023-08-06T12:20:25;23.00;99.90
42913;DHT22;50720;54.324;18.558;2023-08-06T12:23:13;23.40;99.90
42913;DHT22;50720;54.324;18.558;2023-08-06T12:26:01;23.40;99.90
42913;DHT22;50720;54.324;18.558;2023-08-06T12:28:47;23.80;99.90
42913;DHT22;50720;54.324;18.558;2023-08-06T12:31:35;24.10;99.90
42913;DHT22;50720;54.324;18.558;2023-08-06T12:34:23;24.70;99.90
42913;DHT22;50720;54.324;18.558;2023-08-06T12:37:10;24.70;99.90
42913;DHT22;50720;54.324;18.558;2023-08-06T12:39:57;25.50;99.90
42913;DHT22;50720;54.324;18.558;2023-08-06T12:42:44;25.50;99.90
42913;DHT22;50720;54.324;18.558;2023-08-06T12:45:31;25.50;99.90
42913;DHT22;50720;54.324;18.558;2023-08-06T12:48:18;25.50;99.90
42913;DHT22;50720;54.324;18.558;2023-08-06T12:51:06;25.50;99.90
42913;DHT22;50720;54.324;18.558;2023-08-06T12:53:53;25.50;99.90
42913;DHT22;50720;54.324;18.558;2023-08-06T12:56:40;25.70;99.90
42913;DHT22;50720;54.324;18.558;2023-08-06T12:59:27;26.00;99.90
42913;DHT22;50720;54.324;18.558;2023-08-06T13:02:14;26.00;99.90
42913;DHT22;50720;54.324;18.558;2023-08-06T13:05:01;26.30;99.90
42913;DHT22;50720;54.324;18.558;2023-08-06T13:07:52;26.20;99.90
42913;DHT22;50720;54.324;18.558;2023-08-06T13:10:39;26.20;99.90
42913;DHT22;50720;54.324;18.558;2023-08-06T13:13:26;25.70;99.90
42913;DHT22;50720;54.324;18.558;2023-08-06T13:16:13;25.50;99.90
42913;DHT22;50720;54.324;18.558;2023-08-06T13:19:00;25.40;99.90
42913;DHT22;50720;54.324;18.558;2023-08-06T13:22:02;25.20;99.90
42913;DHT22;50720;54.324;18.558;2023-08-06T13:24:52;25.40;99.90
42913;DHT22;50720;54.324;18.558;2023-08-06T13:27:39;25.90;99.90
42913;DHT22;50720;54.324;18.558;2023-08-06T13:30:26;26.50;99.90
42913;DHT22;50720;54.324;18.558;2023-08-06T13:33:14;26.60;99.90
42913;DHT22;50720;54.324;18.558;2023-08-06T13:36:00;27.60;99.90
42913;DHT22;50720;54.324;18.558;2023-08-06T13:38:48;28.20;99.90
42913;DHT22;50720;54.324;18.558;2023-08-06T13:41:37;28.80;99.90
42913;DHT22;50720;54.324;18.558;2023-08-06T13:44:25;29.10;99.90
42913;DHT22;50720;54.324;18.558;2023-08-06T13:47:12;29.50;99.90
42913;DHT22;50720;54.324;18.558;2023-08-06T13:49:59;29.90;99.90
42913;DHT22;50720;54.324;18.558;2023-08-06T13:52:46;30.40;99.90
42913;DHT22;50720;54.324;18.558;2023-08-06T13:55:33;30.50;99.90
42913;DHT22;50720;54.324;18.558;2023-08-06T13:58:21;30.60;99.90
42913;DHT22;50720;54.324;18.558;2023-08-06T14:01:10;30.20;99.90
42913;DHT22;50720;54.324;18.558;2023-08-06T14:03:58;30.20;99.90
42913;DHT22;50720;54.324;18.558;2023-08-06T14:06:46;29.60;99.90
42913;DHT22;50720;54.324;18.558;2023-08-06T14:09:32;29.50;99.90
42913;DHT22;50720;54.324;18.558;2023-08-06T14:12:20;29.00;99.90
42913;DHT22;50720;54.324;18.558;2023-08-06T14:15:10;28.10;99.90
42913;DHT22;50720;54.324;18.558;2023-08-06T14:17:57;28.00;99.90
42913;DHT22;50720;54.324;18.558;2023-08-06T14:20:44;27.00;99.90
42913;DHT22;50720;54.324;18.558;2023-08-06T14:23:32;27.00;99.90
42913;DHT22;50720;54.324;18.558;2023-08-06T14:26:19;26.40;99.90
42913;DHT22;50720;54.324;18.558;2023-08-06T14:29:06;26.00;99.90
42913;DHT22;50720;54.324;18.558;2023-08-06T14:31:54;25.60;99.90
42913;DHT22;50720;54.324;18.558;2023-08-06T14:34:41;25.40;99.90
42913;DHT22;50720;54.324;18.558;2023-08-06T14:37:28;24.70;99.90
42913;DHT22;50720;54.324;18.558;2023-08-06T14:40:16;24.50;99.90
42913;DHT22;50720;54.324;18.558;2023-08-06T14:43:02;24.20;99.90
42913;DHT22;50720;54.324;18.558;2023-08-06T14:45:49;24.00;99.90
42913;DHT22;50720;54.324;18.558;2023-08-06T14:48:38;23.80;99.90
42913;DHT22;50720;54.324;18.558;2023-08-06T14:51:25;23.60;99.90
42913;DHT22;50720;54.324;18.558;2023-08-06T14:54:13;23.40;99.90
42913;DHT22;50720;54.324;18.558;2023-08-06T14:57:00;23.30;99.90
42913;DHT22;50720;54.324;18.558;2023-08-06T14:59:47;23.00;99.90
42913;DHT22;50720;54.324;18.558;2023-08-06T15:02:35;22.80;99.90
42913;DHT22;50720;54.324;18.558;2023-08-06T15:05:23;22.60;99.90
42913;DHT22;50720;54.324;18.558;2023-08-06T15:08:11;22.50;99.90
42913;DHT22;50720;54.324;18.558;2023-08-06T15:10:58;22.30;99.90
42913;DHT22;50720;54.324;18.558;2023-08-06T15:13:47;22.20;99.90
42913;DHT22;50720;54.324;18.558;2023-08-06T15:16:34;22.20;99.90
42913;DHT22;50720;54.324;18.558;2023-08-06T15:19:21;22.20;99.90
42913;DHT22;50720;54.324;18.558;2023-08-06T15:22:10;22.20;99.90
42913;DHT22;50720;54.324;18.558;2023-08-06T15:24:57;22.30;99.90
42913;DHT22;50720;54.324;18.558;2023-08-06T15:27:44;22.30;99.90
42913;DHT22;50720;54.324;18.558;2023-08-06T15:30:31;22.30;99.90
42913;DHT22;50720;54.324;18.558;2023-08-06T15:33:19;22.30;99.90
42913;DHT22;50720;54.324;18.558;2023-08-06T15:36:06;22.20;99.90
42913;DHT22;50720;54.324;18.558;2023-08-06T15:38:54;22.20;99.90
42913;DHT22;50720;54.324;18.558;2023-08-06T15:41:41;22.10;99.90
42913;DHT22;50720;54.324;18.558;2023-08-06T15:44:28;22.10;99.90
42913;DHT22;50720;54.324;18.558;2023-08-06T15:47:15;22.00;99.90
42913;DHT22;50720;54.324;18.558;2023-08-06T15:50:02;22.00;99.90
42913;DHT22;50720;54.324;18.558;2023-08-06T15:55:38;21.90;99.90
42913;DHT22;50720;54.324;18.558;2023-08-06T15:58:25;21.90;99.90
42913;DHT22;50720;54.324;18.558;2023-08-06T16:01:12;21.90;99.90
42913;DHT22;50720;54.324;18.558;2023-08-06T16:04:00;21.80;99.90
42913;DHT22;50720;54.324;18.558;2023-08-06T16:06:47;21.70;99.90
42913;DHT22;50720;54.324;18.558;2023-08-06T16:09:34;21.60;99.90
42913;DHT22;50720;54.324;18.558;2023-08-06T16:12:22;21.40;99.90
42913;DHT22;50720;54.324;18.558;2023-08-06T16:15:10;21.30;99.90
42913;DHT22;50720;54.324;18.558;2023-08-06T16:18:00;21.30;99.90
42913;DHT22;50720;54.324;18.558;2023-08-06T16:20:47;21.10;99.90
42913;DHT22;50720;54.324;18.558;2023-08-06T16:26:22;20.90;99.90
42913;DHT22;50720;54.324;18.558;2023-08-06T16:29:10;20.80;99.90
42913;DHT22;50720;54.324;18.558;2023-08-06T16:31:57;20.70;99.90
42913;DHT22;50720;54.324;18.558;2023-08-06T16:34:45;20.70;99.90
42913;DHT22;50720;54.324;18.558;2023-08-06T16:37:33;20.60;99.90
42913;DHT22;50720;54.324;18.558;2023-08-06T16:40:20;20.60;99.90
42913;DHT22;50720;54.324;18.558;2023-08-06T16:43:07;20.60;99.90
42913;DHT22;50720;54.324;18.558;2023-08-06T16:45:56;20.70;99.90
42913;DHT22;50720;54.324;18.558;2023-08-06T16:48:43;20.70;99.90
42913;DHT22;50720;54.324;18.558;2023-08-06T16:51:31;20.70;99.90
42913;DHT22;50720;54.324;18.558;2023-08-06T16:54:18;20.60;99.90
42913;DHT22;50720;54.324;18.558;2023-08-06T16:57:06;20.70;99.90
42913;DHT22;50720;54.324;18.558;2023-08-06T16:59:53;20.70;99.90
42913;DHT22;50720;54.324;18.558;2023-08-06T17:02:42;20.70;99.90
42913;DHT22;50720;54.324;18.558;2023-08-06T17:05:29;20.60;99.90
42913;DHT22;50720;54.324;18.558;2023-08-06T17:08:16;20.60;99.90
42913;DHT22;50720;54.324;18.558;2023-08-06T17:11:03;20.50;99.90
42913;DHT22;50720;54.324;18.558;2023-08-06T17:13:49;20.40;99.90
42913;DHT22;50720;54.324;18.558;2023-08-06T17:16:37;20.40;99.90
42913;DHT22;50720;54.324;18.558;2023-08-06T17:19:25;20.50;99.90
42913;DHT22;50720;54.324;18.558;2023-08-06T17:22:12;20.40;99.90
42913;DHT22;50720;54.324;18.558;2023-08-06T17:24:59;20.20;99.90
42913;DHT22;50720;54.324;18.558;2023-08-06T17:27:47;20.30;99.90
42913;DHT22;50720;54.324;18.558;2023-08-06T17:30:34;20.20;99.90
42913;DHT22;50720;54.324;18.558;2023-08-06T17:33:21;20.20;99.90
42913;DHT22;50720;54.324;18.558;2023-08-06T17:36:09;20.30;99.90
42913;DHT22;50720;54.324;18.558;2023-08-06T17:38:56;20.30;99.90
42913;DHT22;50720;54.324;18.558;2023-08-06T17:41:43;20.40;99.90
42913;DHT22;50720;54.324;18.558;2023-08-06T17:44:32;20.40;99.90